Time;durP1;ratioP1;P1;durP2;ratioP2;P2;SDS_P1;SDS_P2;PMS_P1;PMS_P2;Temp;Humidity;BMP_temperature;BMP_pressure;BME280_temperature;BME280_humidity;BME280_pressure;Samples;Min_cycle;Max_cycle;Signal;HPM_P1;HPM_P2
2021/05/03 00:00:01;;;;;;;2.10;1.60;;;359.00;1664.00;;;;;;5073345;28;20461;-63
2021/05/03 00:02:27;;;;;;;1.98;1.52;;;359.00;1664.00;;;;;;5073358;28;20166;-62
2021/05/03 00:04:53;;;;;;;4.88;1.95;;;359.00;1664.00;;;;;;5073266;28;20355;-67
2021/05/03 00:07:20;;;;;;;1.73;1.48;;;358.90;1664.00;;;;;;5073413;28;20456;-61
2021/05/03 00:09:46;;;;;;;2.33;1.70;;;358.90;1664.00;;;;;;5072118;28;20393;-63
2021/05/03 00:12:12;;;;;;;2.10;1.80;;;359.00;1664.00;;;;;;5073466;28;20485;-73
2021/05/03 00:14:38;;;;;;;2.20;1.75;;;359.10;1664.00;;;;;;5073397;28;20414;-74
2021/05/03 00:17:04;;;;;;;2.37;1.70;;;359.00;1664.00;;;;;;5073703;28;20400;-61
2021/05/03 00:19:30;;;;;;;2.45;1.80;;;359.00;1664.00;;;;;;5073267;28;20365;-64
2021/05/03 00:21:56;;;;;;;3.75;1.70;;;359.10;1664.00;;;;;;5073196;28;20335;-64
2021/05/03 00:24:22;;;;;;;3.00;2.20;;;359.10;1664.00;;;;;;5073197;28;20425;-62
2021/05/03 00:26:49;;;;;;;2.35;1.92;;;359.00;1664.00;;;;;;5073084;28;20412;-61
2021/05/03 00:29:14;;;;;;;2.65;1.95;;;359.00;1664.00;;;;;;5073385;28;20104;-65
2021/05/03 00:31:41;;;;;;;5.57;1.90;;;359.10;1664.00;;;;;;5073046;28;20104;-63
2021/05/03 00:34:07;;;;;;;3.88;1.88;;;359.10;1664.00;;;;;;5073363;28;20408;-67
2021/05/03 00:36:33;;;;;;;3.13;2.30;;;359.10;1664.00;;;;;;5077206;28;20465;-68
2021/05/03 00:38:59;;;;;;;3.03;1.88;;;359.10;1664.00;;;;;;5077046;28;20350;-67
2021/05/03 00:41:25;;;;;;;2.35;1.83;;;358.90;1664.00;;;;;;5077313;28;20425;-73
2021/05/03 00:43:51;;;;;;;2.33;1.83;;;358.80;1689.60;;;;;;5077590;28;20359;-61
2021/05/03 00:46:21;;;;;;;2.58;1.70;;;358.80;1715.20;;;;;;5077535;28;20400;-72
2021/05/03 00:48:48;;;;;;;2.40;1.90;;;358.80;1689.60;;;;;;5077190;28;20517;-64
2021/05/03 00:51:15;;;;;;;2.63;2.00;;;358.80;1715.20;;;;;;5076813;28;20330;-62
2021/05/03 00:53:41;;;;;;;2.20;1.80;;;358.90;1689.60;;;;;;5076737;28;20483;-64
2021/05/03 00:56:08;;;;;;;2.35;1.63;;;358.80;1715.20;;;;;;5077062;28;20516;-61
2021/05/03 00:58:35;;;;;;;2.50;1.90;;;358.70;1715.20;;;;;;5076652;28;20377;-61
2021/05/03 01:01:02;;;;;;;3.33;1.67;;;358.70;1715.20;;;;;;5076688;28;20465;-62
2021/05/03 01:03:29;;;;;;;2.28;1.55;;;358.80;1715.20;;;;;;5076607;28;20361;-63
2021/05/03 01:05:55;;;;;;;2.17;1.88;;;358.90;1689.60;;;;;;5075316;28;20377;-64
2021/05/03 01:08:21;;;;;;;4.35;2.00;;;358.90;1689.60;;;;;;5076477;28;20467;-61
2021/05/03 01:10:47;;;;;;;3.38;2.45;;;358.90;1689.60;;;;;;5076501;28;20365;-63
2021/05/03 01:13:13;;;;;;;3.83;1.95;;;358.90;1689.60;;;;;;5076626;28;20374;-62
2021/05/03 01:15:40;;;;;;;3.10;1.65;;;358.90;1689.60;;;;;;5076641;28;20084;-62
2021/05/03 01:18:06;;;;;;;3.17;2.17;;;358.90;1689.60;;;;;;5076216;28;20361;-71
2021/05/03 01:20:35;;;;;;;3.08;2.00;;;358.90;1689.60;;;;;;5076261;28;20369;-61
2021/05/03 01:23:03;;;;;;;2.13;1.90;;;359.00;1689.60;;;;;;5076403;28;20013;-72
2021/05/03 01:25:32;;;;;;;2.60;1.90;;;358.90;1689.60;;;;;;5076650;28;20388;-72
2021/05/03 01:28:03;;;;;;;4.22;2.20;;;358.90;1689.60;;;;;;5075021;28;20369;-71
2021/05/03 01:30:35;;;;;;;2.20;2.00;;;358.80;1689.60;;;;;;5076059;28;20350;-64
2021/05/03 01:33:03;;;;;;;2.10;1.73;;;358.90;1689.60;;;;;;5076708;28;20416;-72
2021/05/03 01:35:29;;;;;;;3.83;2.30;;;358.90;1689.60;;;;;;5075840;28;20434;-62
2021/05/03 01:37:58;;;;;;;2.90;2.33;;;358.70;1689.60;;;;;;5075921;28;20384;-60
2021/05/03 01:40:26;;;;;;;2.65;2.10;;;358.70;1689.60;;;;;;5075892;28;20389;-66
2021/05/03 01:42:53;;;;;;;2.55;2.15;;;358.80;1689.60;;;;;;5076199;28;20434;-61
2021/05/03 01:45:23;;;;;;;2.55;2.35;;;358.80;1689.60;;;;;;5075371;28;20477;-69
2021/05/03 01:47:51;;;;;;;3.88;1.98;;;358.90;1689.60;;;;;;5075193;28;20425;-62
2021/05/03 01:50:21;;;;;;;3.15;2.55;;;358.80;1689.60;;;;;;5075752;28;20373;-65
2021/05/03 01:52:48;;;;;;;3.15;2.35;;;358.90;1689.60;;;;;;5075734;28;20423;-64
2021/05/03 01:55:16;;;;;;;2.60;2.30;;;358.80;1689.60;;;;;;5075672;28;20377;-66
2021/05/03 01:57:43;;;;;;;4.35;2.60;;;358.80;1715.20;;;;;;5075481;28;20422;-66
2021/05/03 02:00:09;;;;;;;5.47;2.70;;;358.80;1715.20;;;;;;5075601;28;20126;-65
2021/05/03 02:02:35;;;;;;;5.07;2.67;;;358.80;1715.20;;;;;;5075852;28;20366;-68
2021/05/03 02:05:02;;;;;;;2.95;2.45;;;358.80;1715.20;;;;;;5075667;28;20428;-68
2021/05/03 02:07:29;;;;;;;4.00;2.33;;;358.70;1715.20;;;;;;5074190;28;20393;-62
2021/05/03 02:09:55;;;;;;;4.63;2.47;;;358.80;1715.20;;;;;;5075372;28;20385;-61
2021/05/03 02:12:21;;;;;;;2.95;2.47;;;358.60;1740.80;;;;;;5075351;28;20470;-62
2021/05/03 02:14:47;;;;;;;3.47;2.50;;;358.70;1740.80;;;;;;5075516;28;20411;-61
2021/05/03 02:17:13;;;;;;;2.95;2.55;;;358.70;1715.20;;;;;;5075121;28;20354;-65
2021/05/03 02:19:39;;;;;;;3.10;2.45;;;358.60;1740.80;;;;;;5075166;28;20491;-61
2021/05/03 02:22:06;;;;;;;2.83;2.25;;;358.60;1715.20;;;;;;5075160;28;20342;-61
2021/05/03 02:24:32;;;;;;;2.85;2.40;;;358.70;1715.20;;;;;;5075188;28;20469;-61
2021/05/03 02:26:58;;;;;;;2.95;2.30;;;358.70;1715.20;;;;;;5075381;28;20503;-63
2021/05/03 02:29:24;;;;;;;3.05;2.50;;;358.70;1715.20;;;;;;5075255;28;20376;-63
2021/05/03 02:31:51;;;;;;;2.70;2.20;;;358.70;1715.20;;;;;;5074915;28;20338;-64
2021/05/03 02:34:17;;;;;;;2.85;2.15;;;358.70;1715.20;;;;;;5074681;28;20555;-69
2021/05/03 02:36:43;;;;;;;3.08;2.50;;;358.60;1740.80;;;;;;5074834;28;20357;-61
2021/05/03 02:39:09;;;;;;;2.40;2.20;;;358.60;1740.80;;;;;;5074731;28;20507;-62
2021/05/03 02:41:35;;;;;;;4.30;2.13;;;358.60;1740.80;;;;;;5074977;28;20465;-62
2021/05/03 02:44:02;;;;;;;3.63;1.92;;;358.50;1740.80;;;;;;5074764;28;20365;-61
2021/05/03 02:46:29;;;;;;;3.00;2.45;;;358.60;1740.80;;;;;;5074612;28;20342;-60
2021/05/03 02:48:56;;;;;;;4.57;2.10;;;358.60;1740.80;;;;;;5074615;28;20464;-61
2021/05/03 02:51:22;;;;;;;2.88;2.22;;;358.70;1740.80;;;;;;5074617;28;20489;-63
2021/05/03 02:53:48;;;;;;;3.85;2.60;;;358.70;1740.80;;;;;;5074428;28;20444;-64
2021/05/03 02:56:14;;;;;;;2.70;2.28;;;358.70;1740.80;;;;;;5074450;28;20338;-62
2021/05/03 02:58:40;;;;;;;7.45;2.40;;;358.80;1715.20;;;;;;5073913;28;20380;-61
2021/05/03 03:01:07;;;;;;;2.80;2.35;;;358.70;1715.20;;;;;;5074389;28;20376;-66
2021/05/03 03:03:33;;;;;;;4.15;2.58;;;358.70;1715.20;;;;;;5074330;28;20358;-61
2021/05/03 03:05:59;;;;;;;4.80;2.75;;;358.70;1715.20;;;;;;5074541;28;20428;-62
2021/05/03 03:08:25;;;;;;;4.57;2.25;;;358.60;1715.20;;;;;;5074283;28;20464;-64
2021/05/03 03:10:51;;;;;;;4.78;2.63;;;358.60;1715.20;;;;;;5074147;28;20361;-63
2021/05/03 03:13:17;;;;;;;7.15;3.00;;;358.60;1715.20;;;;;;5074167;28;20373;-62
2021/05/03 03:15:44;;;;;;;4.10;2.80;;;358.50;1715.20;;;;;;5074065;28;20419;-64
2021/05/03 03:18:10;;;;;;;5.70;3.00;;;358.50;1715.20;;;;;;5074230;28;20559;-63
2021/05/03 03:20:36;;;;;;;2.78;2.53;;;358.50;1715.20;;;;;;5074032;28;20453;-62
2021/05/03 03:23:03;;;;;;;3.13;2.65;;;358.50;1715.20;;;;;;5073955;28;20427;-65
2021/05/03 03:25:29;;;;;;;3.15;2.65;;;358.50;1715.20;;;;;;5073982;28;20351;-62
2021/05/03 03:27:56;;;;;;;3.13;2.47;;;358.50;1689.60;;;;;;5073791;28;20346;-68
2021/05/03 03:30:22;;;;;;;2.80;2.40;;;358.50;1715.20;;;;;;5073805;28;20346;-62
2021/05/03 03:32:49;;;;;;;3.90;2.28;;;358.40;1715.20;;;;;;5073799;28;20024;-62
2021/05/03 03:35:18;;;;;;;2.78;2.47;;;358.40;1715.20;;;;;;5073514;28;20396;-61
2021/05/03 03:37:45;;;;;;;5.20;2.38;;;358.40;1715.20;;;;;;5073911;28;20064;-61
2021/05/03 03:40:13;;;;;;;2.60;2.20;;;358.40;1715.20;;;;;;5073714;28;20523;-63
2021/05/03 03:42:40;;;;;;;2.70;2.38;;;333.70;1715.20;;;;;;5073617;28;20377;-61
2021/05/03 03:45:08;;;;;;;5.03;2.50;;;333.70;1715.20;;;;;;5073614;28;20423;-61
2021/05/03 03:47:34;;;;;;;4.13;2.05;;;358.40;1715.20;;;;;;5073511;28;20377;-62
2021/05/03 03:50:01;;;;;;;3.72;2.63;;;358.40;1715.20;;;;;;5074114;28;20416;-65
2021/05/03 03:52:27;;;;;;;4.40;2.47;;;358.40;1715.20;;;;;;5073571;28;20406;-61
2021/05/03 03:54:53;;;;;;;3.67;2.65;;;358.40;1715.20;;;;;;5073456;28;20384;-62
2021/05/03 03:57:20;;;;;;;5.35;2.75;;;358.40;1689.60;;;;;;5073400;28;20365;-61
2021/05/03 03:59:50;;;;;;;3.25;2.90;;;358.40;1715.20;;;;;;5073672;28;20620;-65
2021/05/03 04:02:16;;;;;;;4.70;2.97;;;333.70;1715.20;;;;;;5073426;28;20354;-67
2021/05/03 04:04:49;;;;;;;5.22;2.90;;;333.70;1715.20;;;;;;5073301;28;20020;-67
2021/05/03 04:07:53;;;;;;;3.80;2.67;;;333.70;1715.20;;;;;;5073399;28;20446;-59
2021/05/03 04:23:54;;;;;;;5.05;2.97;;;333.60;1715.20;;;;;;5011750;28;20115;-62
2021/05/03 04:26:23;;;;;;;4.22;3.05;;;333.50;1740.80;;;;;;5062344;28;20409;-60
2021/05/03 04:28:52;;;;;;;4.75;2.80;;;333.70;1715.20;;;;;;5073190;28;20425;-60
2021/05/03 04:31:21;;;;;;;4.70;2.83;;;333.70;1715.20;;;;;;5073144;28;20414;-59
2021/05/03 04:33:47;;;;;;;3.78;3.15;;;333.70;1715.20;;;;;;5073017;28;20488;-60
2021/05/03 04:36:14;;;;;;;5.10;3.30;;;333.70;1715.20;;;;;;5073075;28;20383;-65
2021/05/03 04:38:40;;;;;;;4.55;3.00;;;333.60;1740.80;;;;;;5072994;28;20372;-59
2021/05/03 04:41:08;;;;;;;5.93;3.45;;;333.60;1740.80;;;;;;5073062;28;20390;-61
2021/05/03 04:43:35;;;;;;;4.35;3.42;;;333.60;1740.80;;;;;;5072985;28;20421;-58
2021/05/03 04:46:02;;;;;;;4.15;3.70;;;333.60;1740.80;;;;;;5073017;28;20361;-58
2021/05/03 04:48:28;;;;;;;5.63;3.38;;;333.40;1740.80;;;;;;5072871;28;20354;-61
2021/05/03 04:50:55;;;;;;;6.65;3.60;;;333.50;1740.80;;;;;;5072958;28;20392;-58
2021/05/03 04:53:22;;;;;;;8.40;3.83;;;333.50;1740.80;;;;;;5072923;28;20411;-60
2021/05/03 04:55:49;;;;;;;4.35;3.67;;;333.60;2099.20;;;;;;5072915;28;20012;-59
2021/05/03 04:58:15;;;;;;;4.72;4.00;;;333.70;1740.80;;;;;;5073025;28;20362;-59
2021/05/03 05:00:42;;;;;;;4.35;3.85;;;333.70;1740.80;;;;;;5072875;28;20442;-58
2021/05/03 05:03:08;;;;;;;4.68;4.18;;;333.70;1740.80;;;;;;5072768;28;20456;-59
2021/05/03 05:05:34;;;;;;;4.80;3.85;;;333.60;1740.80;;;;;;5072783;28;20372;-62
2021/05/03 05:08:00;;;;;;;9.55;4.32;;;333.50;1740.80;;;;;;5072954;28;20338;-58
2021/05/03 05:10:26;;;;;;;4.10;3.70;;;333.50;1740.80;;;;;;5072956;28;20523;-59
2021/05/03 05:12:53;;;;;;;5.30;3.80;;;333.50;1766.40;;;;;;5073461;28;20376;-59
2021/05/03 05:15:19;;;;;;;4.70;4.15;;;333.70;1740.80;;;;;;5072895;28;20368;-58
2021/05/03 05:17:48;;;;;;;7.72;4.25;;;358.40;1715.20;;;;;;5072788;28;20380;-58
2021/05/03 05:20:19;;;;;;;5.00;4.50;;;333.70;1715.20;;;;;;5073420;28;20419;-58
2021/05/03 05:22:45;;;;;;;4.63;4.10;;;333.60;1740.80;;;;;;5076431;28;20445;-59
2021/05/03 05:25:12;;;;;;;5.18;4.68;;;333.70;1715.20;;;;;;5076340;28;20040;-59
2021/05/03 05:27:39;;;;;;;6.03;5.43;;;333.70;1715.20;;;;;;5076371;28;20469;-58
2021/05/03 05:30:07;;;;;;;7.50;5.45;;;333.70;1715.20;;;;;;5076307;28;20360;-59
2021/05/03 05:32:34;;;;;;;11.32;8.60;;;333.70;1740.80;;;;;;5076131;28;20459;-62
2021/05/03 05:35:00;;;;;;;9.10;6.85;;;333.60;1740.80;;;;;;5075870;28;20434;-62
2021/05/03 05:37:27;;;;;;;6.22;4.72;;;358.40;1715.20;;;;;;5075987;28;20369;-58
2021/05/03 05:39:53;;;;;;;6.32;5.55;;;358.40;1740.80;;;;;;5075895;28;20415;-58
2021/05/03 05:42:20;;;;;;;6.53;5.65;;;358.40;1715.20;;;;;;5075999;28;20480;-59
2021/05/03 05:44:46;;;;;;;6.35;5.60;;;358.40;1715.20;;;;;;5076059;28;20372;-69
2021/05/03 05:47:12;;;;;;;6.93;6.07;;;333.60;1715.20;;;;;;5075921;28;20372;-63
2021/05/03 05:49:38;;;;;;;6.25;5.60;;;333.70;1715.20;;;;;;5075761;28;20342;-59
2021/05/03 05:52:05;;;;;;;7.18;5.90;;;333.70;1715.20;;;;;;5074448;28;20480;-61
2021/05/03 05:54:31;;;;;;;7.20;6.22;;;358.40;1715.20;;;;;;5074421;28;20346;-65
2021/05/03 05:56:57;;;;;;;6.93;6.18;;;358.60;1689.60;;;;;;5075643;28;20508;-61
2021/05/03 05:59:23;;;;;;;7.82;6.88;;;358.60;1689.60;;;;;;5075540;28;20416;-60
2021/05/03 06:01:50;;;;;;;7.93;7.13;;;358.70;1638.40;;;;;;5075832;28;20357;-66
2021/05/03 06:04:16;;;;;;;8.10;7.30;;;358.60;1638.40;;;;;;5075482;28;20519;-59
2021/05/03 06:06:43;;;;;;;7.70;6.40;;;358.60;1664.00;;;;;;5075470;28;20454;-70
2021/05/03 06:09:10;;;;;;;7.53;6.35;;;358.70;1612.80;;;;;;5075925;28;20457;-58
2021/05/03 06:14:58;;;;;;;9.88;7.15;;;358.90;1536.00;;;;;;5075545;28;20020;-71
2021/05/03 06:17:24;;;;;;;9.52;7.90;;;358.90;1536.00;;;;;;5075284;28;20376;-61
2021/05/03 06:19:50;;;;;;;8.85;7.43;;;359.00;1536.00;;;;;;5075643;28;20020;-62
2021/05/03 06:22:16;;;;;;;11.40;8.23;;;359.20;1536.00;;;;;;5075268;28;20342;-59
2021/05/03 06:24:42;;;;;;;9.25;7.53;;;384.10;1510.40;;;;;;5075196;28;20407;-59
2021/05/03 06:27:10;;;;;;;10.65;7.43;;;384.10;1484.80;;;;;;5075193;28;20430;-68
2021/05/03 06:29:37;;;;;;;12.27;9.23;;;384.20;1510.40;;;;;;5075485;28;20445;-67
2021/05/03 06:32:03;;;;;;;18.17;10.63;;;384.30;1459.20;;;;;;5074489;28;20436;-69
2021/05/03 06:34:31;;;;;;;21.42;11.77;;;384.60;1484.80;;;;;;5074828;28;20385;-69
2021/05/03 06:36:58;;;;;;;23.10;12.65;;;384.80;1433.60;;;;;;5075493;28;20532;-59
2021/05/03 06:39:25;;;;;;;21.25;12.90;;;384.70;1459.20;;;;;;5074887;28;20388;-59
2021/05/03 06:41:51;;;;;;;20.80;13.25;;;384.70;1408.00;;;;;;5074971;28;20369;-59
2021/05/03 06:44:17;;;;;;;20.40;13.27;;;384.60;1433.60;;;;;;5074909;28;20426;-59
2021/05/03 06:46:43;;;;;;;23.92;15.88;;;384.70;1382.40;;;;;;5074866;28;20354;-59
2021/05/03 06:49:10;;;;;;;38.67;18.77;;;384.50;1382.40;;;;;;5074840;28;20416;-59
2021/05/03 06:51:36;;;;;;;28.45;20.67;;;384.50;1433.60;;;;;;5075361;28;20394;-59
2021/05/03 06:54:03;;;;;;;28.10;19.20;;;384.50;1433.60;;;;;;5075557;28;20345;-59
2021/05/03 06:56:29;;;;;;;26.90;17.05;;;384.50;1408.00;;;;;;5074659;28;20423;-59
2021/05/03 06:58:55;;;;;;;18.80;14.63;;;384.70;1382.40;;;;;;5074541;28;20436;-59
2021/05/03 07:01:22;;;;;;;14.90;10.65;;;384.70;1408.00;;;;;;5074509;28;20373;-58
2021/05/03 07:03:49;;;;;;;14.90;9.85;;;384.50;1356.80;;;;;;5074451;28;20412;-58
2021/05/03 07:06:15;;;;;;;13.38;10.55;;;384.40;1382.40;;;;;;5074666;28;20361;-59
2021/05/03 07:08:45;;;;;;;13.60;9.95;;;384.30;1382.40;;;;;;5074486;28;20338;-59
2021/05/03 07:11:17;;;;;;;13.63;9.38;;;384.00;1382.40;;;;;;5074365;28;20377;-58
2021/05/03 07:13:43;;;;;;;11.60;9.48;;;384.00;1433.60;;;;;;5074581;28;20450;-59
2021/05/03 07:16:09;;;;;;;10.10;8.90;;;384.10;1433.60;;;;;;5074304;28;20335;-66
2021/05/03 07:18:35;;;;;;;11.45;8.57;;;384.00;1382.40;;;;;;5074175;28;20370;-58
2021/05/03 07:21:03;;;;;;;10.80;8.43;;;359.30;1408.00;;;;;;5074179;28;20408;-59
2021/05/03 07:23:29;;;;;;;15.23;11.15;;;359.30;1408.00;;;;;;5072895;28;20372;-59
2021/05/03 07:25:57;;;;;;;15.00;10.48;;;359.20;1408.00;;;;;;5074030;28;20361;-59
2021/05/03 07:28:23;;;;;;;13.75;9.88;;;359.20;1331.20;;;;;;5073991;28;20368;-59
2021/05/03 07:30:49;;;;;;;12.35;10.05;;;359.20;1356.80;;;;;;5074065;28;20370;-59
2021/05/03 07:33:16;;;;;;;11.52;8.45;;;359.20;1331.20;;;;;;5074269;28;20044;-58
2021/05/03 07:35:43;;;;;;;11.93;7.35;;;359.10;1356.80;;;;;;5074131;28;20401;-59
2021/05/03 07:38:09;;;;;;;9.85;7.95;;;359.10;1356.80;;;;;;5073878;28;20377;-58
2021/05/03 07:40:35;;;;;;;9.45;7.20;;;359.10;1382.40;;;;;;5073871;28;20457;-60
2021/05/03 07:43:01;;;;;;;9.68;7.22;;;359.10;1356.80;;;;;;5073968;28;20350;-59
2021/05/03 07:45:27;;;;;;;12.45;7.55;;;359.10;1305.60;;;;;;5072957;28;20373;-58
2021/05/03 07:47:53;;;;;;;5.60;4.13;;;359.20;1305.60;;;;;;5073698;28;20372;-59
2021/05/03 07:50:19;;;;;;;5.63;4.18;;;359.00;1280.00;;;;;;5073786;28;20358;-59
2021/05/03 07:52:45;;;;;;;6.03;3.63;;;359.00;1305.60;;;;;;5073654;28;20360;-59
2021/05/03 07:55:12;;;;;;;6.80;4.03;;;359.00;1254.40;;;;;;5073599;28;20385;-60
2021/05/03 07:57:39;;;;;;;4.70;3.30;;;359.00;1280.00;;;;;;5073852;28;20362;-63
2021/05/03 08:00:06;;;;;;;6.00;3.40;;;359.00;1254.40;;;;;;5073578;28;20377;-60
2021/05/03 08:02:33;;;;;;;4.88;3.38;;;359.00;1305.60;;;;;;5073928;28;20407;-60
2021/05/03 08:04:59;;;;;;;8.95;3.97;;;359.10;1305.60;;;;;;5073525;28;20419;-66
2021/05/03 08:07:25;;;;;;;5.50;3.83;;;359.10;1280.00;;;;;;5074145;28;20500;-60
2021/05/03 08:09:51;;;;;;;5.85;3.50;;;359.10;1280.00;;;;;;5073493;28;20480;-62
2021/05/03 08:12:17;;;;;;;6.25;3.83;;;359.20;1280.00;;;;;;5073699;28;20357;-66
2021/05/03 08:14:44;;;;;;;27.70;7.75;;;359.20;1280.00;;;;;;5073478;28;20457;-61
2021/05/03 08:17:11;;;;;;;11.85;4.78;;;359.20;1280.00;;;;;;5073391;28;20470;-66
2021/05/03 08:19:39;;;;;;;8.48;4.00;;;359.10;1254.40;;;;;;5073327;28;20498;-60
2021/05/03 08:22:05;;;;;;;10.02;4.00;;;359.00;1254.40;;;;;;5073324;28;20354;-60
2021/05/03 08:24:33;;;;;;;7.85;4.82;;;359.00;1254.40;;;;;;5073443;28;20432;-61
2021/05/03 08:27:00;;;;;;;7.38;5.10;;;358.90;1254.40;;;;;;5073117;28;20369;-60
2021/05/03 08:29:26;;;;;;;7.30;4.72;;;358.90;1254.40;;;;;;5073147;28;20481;-60
2021/05/03 08:31:54;;;;;;;6.72;4.05;;;358.90;1254.40;;;;;;5073101;28;20480;-60
2021/05/03 08:34:20;;;;;;;6.78;4.15;;;359.00;1280.00;;;;;;5073041;28;20492;-60
2021/05/03 08:36:46;;;;;;;6.40;4.00;;;359.00;1254.40;;;;;;5073439;28;20403;-60
2021/05/03 08:39:12;;;;;;;8.00;3.80;;;359.10;1254.40;;;;;;5073185;28;20465;-60
2021/05/03 08:41:39;;;;;;;4.32;3.58;;;359.10;1228.80;;;;;;5073489;28;20028;-60
2021/05/03 08:44:07;;;;;;;7.47;3.97;;;359.10;1280.00;;;;;;5073162;28;20419;-60
2021/05/03 08:46:38;;;;;;;4.00;3.50;;;359.10;1228.80;;;;;;5073199;28;20443;-60
2021/05/03 08:49:16;;;;;;;5.60;3.90;;;359.10;1203.20;;;;;;5074250;28;20494;-60
2021/05/03 08:52:06;;;;;;;9.05;5.32;;;359.10;1203.20;;;;;;5071999;28;20036;-60
2021/05/03 08:54:40;;;;;;;8.70;4.57;;;359.10;1228.80;;;;;;5073098;28;20419;-69
2021/05/03 08:57:09;;;;;;;6.45;3.33;;;359.20;1254.40;;;;;;5076960;28;20411;-60
2021/05/03 08:59:36;;;;;;;5.43;4.30;;;359.30;1203.20;;;;;;5076874;28;20063;-60
2021/05/03 09:02:11;;;;;;;5.13;3.95;;;384.00;1228.80;;;;;;5076899;28;20376;-60
2021/05/03 09:04:37;;;;;;;4.88;3.70;;;384.20;1203.20;;;;;;5076852;28;20024;-60
2021/05/03 09:07:13;;;;;;;7.25;3.45;;;384.30;1177.60;;;;;;5077099;28;20427;-60
2021/05/03 09:09:48;;;;;;;7.45;3.78;;;384.40;1177.60;;;;;;5075506;28;20457;-66
2021/05/03 09:12:17;;;;;;;6.22;4.10;;;384.50;1177.60;;;;;;5076715;28;20385;-60
2021/05/03 09:14:46;;;;;;;4.75;3.58;;;384.40;1177.60;;;;;;5076682;28;20496;-60
2021/05/03 09:17:38;;;;;;;3.45;3.10;;;384.30;1152.00;;;;;;5076853;28;20365;-60
2021/05/03 09:20:09;;;;;;;5.35;4.03;;;384.20;1152.00;;;;;;5076489;28;20538;-60
2021/05/03 09:22:50;;;;;;;5.35;3.65;;;384.20;1152.00;;;;;;5076844;28;20330;-60
2021/05/03 09:25:20;;;;;;;5.78;3.70;;;384.10;1152.00;;;;;;5076486;28;20020;-60
2021/05/03 09:27:49;;;;;;;7.00;4.78;;;384.20;1152.00;;;;;;5076942;28;20399;-60
2021/05/03 09:30:33;;;;;;;6.70;5.10;;;384.30;1152.00;;;;;;5076327;28;20459;-60
2021/05/03 09:33:22;;;;;;;5.50;3.90;;;384.30;1177.60;;;;;;5076318;28;20377;-60
2021/05/03 09:35:59;;;;;;;5.03;4.05;;;384.40;1152.00;;;;;;5076075;28;20506;-60
2021/05/03 09:38:37;;;;;;;6.32;4.50;;;384.50;1152.00;;;;;;5076166;28;20409;-60
2021/05/03 09:41:14;;;;;;;6.57;4.38;;;384.50;1126.40;;;;;;5076178;28;20342;-59
2021/05/03 09:44:02;;;;;;;6.47;4.78;;;384.50;1152.00;;;;;;5076303;28;20381;-60
2021/05/03 09:46:35;;;;;;;7.95;5.13;;;384.50;1177.60;;;;;;5065235;28;20428;-60
2021/05/03 09:49:16;;;;;;;5.10;3.95;;;384.50;1203.20;;;;;;5076660;28;20396;-60
2021/05/03 09:51:44;;;;;;;9.98;4.95;;;384.30;1152.00;;;;;;5075913;28;20031;-61
2021/05/03 09:54:29;;;;;;;24.15;12.90;;;384.30;1177.60;;;;;;5074681;28;20357;-62
2021/05/03 09:57:05;;;;;;;6.63;4.68;;;384.40;1152.00;;;;;;5075899;28;20465;-63
2021/05/03 09:59:38;;;;;;;4.88;3.85;;;384.50;1152.00;;;;;;5076059;28;20365;-63
2021/05/03 10:02:24;;;;;;;4.88;3.50;;;384.60;1126.40;;;;;;5075818;28;20445;-61
2021/05/03 10:05:20;;;;;;;6.80;4.45;;;384.80;1152.00;;;;;;5075671;28;20461;-60
2021/05/03 10:07:54;;;;;;;4.65;3.78;;;384.80;1152.00;;;;;;5074540;28;20457;-59
2021/05/03 10:10:36;;;;;;;4.57;4.10;;;384.80;1100.80;;;;;;5075980;28;20404;-61
2021/05/03 10:13:03;;;;;;;6.95;3.50;;;409.60;1177.60;;;;;;5075672;28;20452;-60
2021/05/03 10:15:29;;;;;;;7.53;3.90;;;409.80;1152.00;;;;;;5075632;28;20047;-60
2021/05/03 10:17:55;;;;;;;4.40;3.08;;;410.00;1177.60;;;;;;5075410;28;20448;-61
2021/05/03 10:20:22;;;;;;;5.63;3.05;;;410.00;1100.80;;;;;;5075403;28;20437;-61
2021/05/03 10:22:53;;;;;;;5.53;3.53;;;410.00;1126.40;;;;;;5075706;28;20404;-60
2021/05/03 10:25:20;;;;;;;7.63;3.67;;;410.10;1126.40;;;;;;5075258;28;20457;-60
2021/05/03 10:27:47;;;;;;;6.55;3.28;;;410.10;1126.40;;;;;;5074003;28;20369;-62
2021/05/03 10:30:20;;;;;;;8.13;3.58;;;410.20;1100.80;;;;;;5075204;28;20373;-61
2021/05/03 10:33:09;;;;;;;6.53;4.07;;;410.20;1126.40;;;;;;5075210;28;20523;-61
2021/05/03 10:35:44;;;;;;;4.93;3.15;;;410.30;1126.40;;;;;;5075057;28;20393;-62
2021/05/03 10:38:41;;;;;;;4.82;3.05;;;410.30;1100.80;;;;;;5075012;28;20392;-62
2021/05/03 10:41:25;;;;;;;4.50;3.70;;;410.10;1100.80;;;;;;5075358;28;20030;-61
2021/05/03 10:44:08;;;;;;;10.65;6.47;;;410.10;1100.80;;;;;;5075003;28;20480;-61
2021/05/03 10:49:06;;;;;;;11.35;9.98;;;410.00;1126.40;;;;;;5074934;28;20335;-62
2021/05/03 10:51:42;;;;;;;6.03;4.10;;;410.00;1126.40;;;;;;5074838;28;20396;-62
2021/05/03 10:54:21;;;;;;;10.60;4.28;;;409.90;1126.40;;;;;;5075056;28;20358;-62
2021/05/03 10:56:47;;;;;;;5.70;4.18;;;409.90;1126.40;;;;;;5075212;28;20406;-61
2021/05/03 10:59:14;;;;;;;6.72;3.53;;;409.80;1100.80;;;;;;5074631;28;20485;-60
2021/05/03 11:01:53;;;;;;;6.45;3.80;;;409.80;1126.40;;;;;;5074541;28;20365;-61
2021/05/03 11:04:21;;;;;;;6.53;3.55;;;409.80;1075.20;;;;;;5074786;28;20430;-61
2021/05/03 11:06:47;;;;;;;5.22;3.50;;;409.80;1100.80;;;;;;5074494;28;20361;-61
2021/05/03 11:09:32;;;;;;;5.18;3.30;;;409.80;1100.80;;;;;;5074414;28;20024;-62
2021/05/03 11:11:59;;;;;;;5.15;3.25;;;410.10;1075.20;;;;;;5074276;28;20111;-63
2021/05/03 11:14:28;;;;;;;7.30;2.85;;;410.10;998.40;;;;;;5073081;28;20486;-61
2021/05/03 11:17:05;;;;;;;5.88;1.90;;;410.10;998.40;;;;;;5074505;28;20373;-67
2021/05/03 11:20:04;;;;;;;3.78;2.08;;;410.20;972.80;;;;;;5073973;28;20463;-60
2021/05/03 11:22:51;;;;;;;3.03;2.08;;;410.10;998.40;;;;;;5074209;28;20338;-61
2021/05/03 11:25:23;;;;;;;4.53;2.30;;;410.10;998.40;;;;;;5074453;28;20473;-63
2021/05/03 11:30:38;;;;;;;6.32;4.03;;;410.10;1024.00;;;;;;5074063;28;20020;-66
2021/05/03 11:33:14;;;;;;;2.47;1.80;;;410.00;1024.00;;;;;;5074137;28;20430;-60
2021/05/03 11:36:02;;;;;;;3.78;1.90;;;409.80;972.80;;;;;;5073886;28;20381;-59
2021/05/03 11:38:36;;;;;;;6.07;2.08;;;409.70;972.80;;;;;;5073775;28;20380;-59
2021/05/03 11:42:21;;;;;;;5.55;2.42;;;384.90;947.20;;;;;;5074171;28;20020;-60
2021/05/03 11:44:10;;;;;;;8.63;4.07;;;409.60;998.40;;;;;;5060496;28;20025;-60
2021/05/03 11:46:38;;;;;;;6.28;3.33;;;409.60;1024.00;;;;;;5072545;28;20373;-61
2021/05/03 11:49:10;;;;;;;5.95;2.47;;;409.70;1024.00;;;;;;5073788;28;20346;-60
2021/05/03 11:51:47;;;;;;;4.38;2.05;;;409.80;1024.00;;;;;;5073712;28;20342;-60
2021/05/03 11:54:34;;;;;;;4.88;2.35;;;409.90;1024.00;;;;;;5073682;28;20400;-60
2021/05/03 11:57:05;;;;;;;4.40;2.33;;;409.80;998.40;;;;;;5073700;28;20354;-60
2021/05/03 11:59:33;;;;;;;6.22;2.25;;;409.90;998.40;;;;;;5073597;28;20365;-60
2021/05/03 12:02:00;;;;;;;4.60;2.50;;;409.90;998.40;;;;;;5073920;28;20365;-66
2021/05/03 12:04:39;;;;;;;3.22;2.63;;;410.00;1024.00;;;;;;5074209;28;20520;-62
2021/05/03 12:07:23;;;;;;;4.30;2.88;;;410.10;1049.60;;;;;;5074173;28;20350;-61
2021/05/03 12:10:03;;;;;;;5.32;3.63;;;410.10;1024.00;;;;;;5073506;28;20465;-59
2021/05/03 12:12:40;;;;;;;5.82;2.83;;;410.20;1049.60;;;;;;5073776;28;20487;-69
2021/05/03 12:15:10;;;;;;;7.28;2.75;;;410.40;1024.00;;;;;;5073356;28;20399;-59
2021/05/03 12:17:36;;;;;;;4.03;2.95;;;410.50;1024.00;;;;;;5073272;28;20520;-59
2021/05/03 12:20:10;;;;;;;5.07;3.78;;;410.50;972.80;;;;;;5073469;28;20450;-62
2021/05/03 12:22:37;;;;;;;;;;;410.50;1024.00;;;;;;5074469;28;20346;-65
2021/05/03 12:25:10;;;;;;;3.30;2.53;;;410.50;1024.00;;;;;;5073933;28;20268;-60
2021/05/03 12:27:38;;;;;;;4.03;3.35;;;410.50;998.40;;;;;;5072830;28;20341;-60
2021/05/03 12:30:06;;;;;;;5.53;3.13;;;410.50;998.40;;;;;;5074266;28;20347;-59
2021/05/03 12:32:37;;;;;;;4.60;2.42;;;410.50;1024.00;;;;;;5077743;28;20426;-59
2021/05/03 12:35:08;;;;;;;7.07;3.10;;;410.40;998.40;;;;;;5077072;28;20397;-60
2021/05/03 12:37:35;;;;;;;4.82;3.40;;;410.40;1024.00;;;;;;5077261;28;20490;-59
2021/05/03 12:40:08;;;;;;;10.07;3.97;;;410.40;1024.00;;;;;;5077230;28;20496;-60
2021/05/03 12:42:38;;;;;;;6.03;3.45;;;410.30;1024.00;;;;;;5077173;28;20477;-60
2021/05/03 12:45:20;;;;;;;6.13;3.25;;;410.30;1049.60;;;;;;5078147;28;20384;-60
2021/05/03 12:53:36;;;;;;;9.25;4.30;;;410.30;1049.60;;;;;;5077156;28;20477;-60